sensor_id;sensor_type;location;lat;lon;timestamp;P1;durP1;ratioP1;P2;durP2;ratioP2
41693;SDS011;27377;50.666;9.150;2023-05-10T00:00:50;3.87;;;1.50;;
41693;SDS011;27377;50.666;9.150;2023-05-10T00:03:16;3.75;;;1.30;;
41693;SDS011;27377;50.666;9.150;2023-05-10T00:05:42;2.90;;;1.20;;
41693;SDS011;27377;50.666;9.150;2023-05-10T00:08:07;2.17;;;1.30;;
41693;SDS011;27377;50.666;9.150;2023-05-10T00:10:33;4.15;;;1.20;;
41693;SDS011;27377;50.666;9.150;2023-05-10T00:12:58;3.13;;;1.40;;
41693;SDS011;27377;50.666;9.150;2023-05-10T00:15:24;2.95;;;1.08;;
41693;SDS011;27377;50.666;9.150;2023-05-10T00:17:50;1.20;;;0.90;;
41693;SDS011;27377;50.666;9.150;2023-05-10T00:20:15;1.60;;;1.00;;
41693;SDS011;27377;50.666;9.150;2023-05-10T00:22:41;5.90;;;1.10;;
41693;SDS011;27377;50.666;9.150;2023-05-10T00:25:06;2.67;;;1.00;;
41693;SDS011;27377;50.666;9.150;2023-05-10T00:27:33;1.63;;;1.10;;
41693;SDS011;27377;50.666;9.150;2023-05-10T00:29:58;1.97;;;1.00;;
41693;SDS011;27377;50.666;9.150;2023-05-10T00:32:24;2.47;;;1.20;;
41693;SDS011;27377;50.666;9.150;2023-05-10T00:34:49;1.93;;;1.10;;
41693;SDS011;27377;50.666;9.150;2023-05-10T00:37:15;2.28;;;1.10;;
41693;SDS011;27377;50.666;9.150;2023-05-10T00:39:41;2.00;;;1.20;;
41693;SDS011;27377;50.666;9.150;2023-05-10T00:42:06;1.97;;;1.17;;
41693;SDS011;27377;50.666;9.150;2023-05-10T00:44:32;2.07;;;1.23;;
41693;SDS011;27377;50.666;9.150;2023-05-10T00:46:57;2.07;;;1.30;;
41693;SDS011;27377;50.666;9.150;2023-05-10T00:49:24;4.18;;;1.48;;
41693;SDS011;27377;50.666;9.150;2023-05-10T00:51:50;1.98;;;1.40;;
41693;SDS011;27377;50.666;9.150;2023-05-10T00:54:15;6.47;;;1.60;;
41693;SDS011;27377;50.666;9.150;2023-05-10T00:56:41;3.07;;;1.40;;
41693;SDS011;27377;50.666;9.150;2023-05-10T00:59:13;2.17;;;1.50;;
41693;SDS011;27377;50.666;9.150;2023-05-10T01:01:39;2.30;;;1.33;;
41693;SDS011;27377;50.666;9.150;2023-05-10T01:04:05;3.45;;;1.40;;
41693;SDS011;27377;50.666;9.150;2023-05-10T01:06:31;3.55;;;1.50;;
41693;SDS011;27377;50.666;9.150;2023-05-10T01:08:57;2.42;;;1.50;;
41693;SDS011;27377;50.666;9.150;2023-05-10T01:11:22;2.73;;;1.00;;
41693;SDS011;27377;50.666;9.150;2023-05-10T01:13:50;1.38;;;0.90;;
41693;SDS011;27377;50.666;9.150;2023-05-10T01:16:20;0.80;;;0.50;;
41693;SDS011;27377;50.666;9.150;2023-05-10T01:18:46;0.73;;;0.50;;
41693;SDS011;27377;50.666;9.150;2023-05-10T01:26:39;1.13;;;0.40;;
41693;SDS011;27377;50.666;9.150;2023-05-10T01:34:48;1.20;;;0.70;;
41693;SDS011;27377;50.666;9.150;2023-05-10T01:37:20;1.73;;;0.40;;
41693;SDS011;27377;50.666;9.150;2023-05-10T01:39:55;2.77;;;0.40;;
41693;SDS011;27377;50.666;9.150;2023-05-10T01:42:28;1.33;;;0.40;;
41693;SDS011;27377;50.666;9.150;2023-05-10T01:47:43;0.90;;;0.40;;
41693;SDS011;27377;50.666;9.150;2023-05-10T01:50:15;1.20;;;0.40;;
41693;SDS011;27377;50.666;9.150;2023-05-10T01:52:46;1.77;;;0.50;;
41693;SDS011;27377;50.666;9.150;2023-05-10T01:55:15;1.53;;;0.60;;
41693;SDS011;27377;50.666;9.150;2023-05-10T01:57:43;1.20;;;0.50;;
41693;SDS011;27377;50.666;9.150;2023-05-10T02:00:11;2.03;;;0.40;;
41693;SDS011;27377;50.666;9.150;2023-05-10T02:02:39;1.90;;;0.50;;
41693;SDS011;27377;50.666;9.150;2023-05-10T02:05:09;2.97;;;0.60;;
41693;SDS011;27377;50.666;9.150;2023-05-10T02:07:37;1.90;;;0.60;;
41693;SDS011;27377;50.666;9.150;2023-05-10T02:10:04;0.70;;;0.50;;
41693;SDS011;27377;50.666;9.150;2023-05-10T02:12:31;0.90;;;0.53;;
41693;SDS011;27377;50.666;9.150;2023-05-10T02:14:59;1.08;;;0.47;;
41693;SDS011;27377;50.666;9.150;2023-05-10T02:17:28;1.35;;;0.30;;
41693;SDS011;27377;50.666;9.150;2023-05-10T02:19:56;1.10;;;0.40;;
41693;SDS011;27377;50.666;9.150;2023-05-10T02:22:24;0.63;;;0.30;;
41693;SDS011;27377;50.666;9.150;2023-05-10T02:24:52;1.13;;;0.40;;
41693;SDS011;27377;50.666;9.150;2023-05-10T02:27:19;0.65;;;0.30;;
41693;SDS011;27377;50.666;9.150;2023-05-10T02:29:47;0.98;;;0.40;;
41693;SDS011;27377;50.666;9.150;2023-05-10T02:32:14;1.00;;;0.40;;
41693;SDS011;27377;50.666;9.150;2023-05-10T02:34:41;1.27;;;0.40;;
41693;SDS011;27377;50.666;9.150;2023-05-10T02:37:07;2.00;;;0.52;;
41693;SDS011;27377;50.666;9.150;2023-05-10T02:39:34;0.57;;;0.40;;
41693;SDS011;27377;50.666;9.150;2023-05-10T02:42:00;1.58;;;0.50;;
41693;SDS011;27377;50.666;9.150;2023-05-10T02:44:27;5.10;;;0.65;;
41693;SDS011;27377;50.666;9.150;2023-05-10T02:46:55;1.38;;;0.50;;
41693;SDS011;27377;50.666;9.150;2023-05-10T02:49:21;0.98;;;0.40;;
41693;SDS011;27377;50.666;9.150;2023-05-10T02:51:49;0.93;;;0.50;;
41693;SDS011;27377;50.666;9.150;2023-05-10T02:54:20;1.00;;;0.60;;
41693;SDS011;27377;50.666;9.150;2023-05-10T02:56:50;0.90;;;0.60;;
41693;SDS011;27377;50.666;9.150;2023-05-10T02:59:21;1.92;;;0.57;;
41693;SDS011;27377;50.666;9.150;2023-05-10T03:01:47;0.70;;;0.60;;
41693;SDS011;27377;50.666;9.150;2023-05-10T03:04:12;1.20;;;0.70;;
41693;SDS011;27377;50.666;9.150;2023-05-10T03:06:38;1.50;;;0.60;;
41693;SDS011;27377;50.666;9.150;2023-05-10T03:09:04;0.52;;;0.50;;
41693;SDS011;27377;50.666;9.150;2023-05-10T03:11:37;1.63;;;0.65;;
41693;SDS011;27377;50.666;9.150;2023-05-10T03:14:21;0.90;;;0.60;;
41693;SDS011;27377;50.666;9.150;2023-05-10T03:19:32;1.00;;;0.70;;
41693;SDS011;27377;50.666;9.150;2023-05-10T03:22:44;1.60;;;0.65;;
41693;SDS011;27377;50.666;9.150;2023-05-10T03:25:12;0.90;;;0.50;;
41693;SDS011;27377;50.666;9.150;2023-05-10T03:27:41;3.15;;;0.60;;
41693;SDS011;27377;50.666;9.150;2023-05-10T03:30:10;1.63;;;0.60;;
41693;SDS011;27377;50.666;9.150;2023-05-10T03:32:37;1.40;;;0.53;;
41693;SDS011;27377;50.666;9.150;2023-05-10T03:35:09;0.50;;;0.50;;
41693;SDS011;27377;50.666;9.150;2023-05-10T03:37:37;0.60;;;0.50;;
41693;SDS011;27377;50.666;9.150;2023-05-10T03:40:02;1.27;;;0.60;;
41693;SDS011;27377;50.666;9.150;2023-05-10T03:42:29;1.92;;;0.55;;
41693;SDS011;27377;50.666;9.150;2023-05-10T03:44:54;0.68;;;0.40;;
41693;SDS011;27377;50.666;9.150;2023-05-10T03:47:20;2.60;;;0.50;;
41693;SDS011;27377;50.666;9.150;2023-05-10T03:49:45;0.87;;;0.50;;
41693;SDS011;27377;50.666;9.150;2023-05-10T03:52:11;1.40;;;0.47;;
41693;SDS011;27377;50.666;9.150;2023-05-10T03:54:37;0.70;;;0.50;;
41693;SDS011;27377;50.666;9.150;2023-05-10T03:57:02;0.90;;;0.50;;
41693;SDS011;27377;50.666;9.150;2023-05-10T03:59:28;0.55;;;0.50;;
41693;SDS011;27377;50.666;9.150;2023-05-10T04:01:54;2.10;;;0.60;;
41693;SDS011;27377;50.666;9.150;2023-05-10T04:04:20;1.57;;;0.53;;
41693;SDS011;27377;50.666;9.150;2023-05-10T04:06:46;0.57;;;0.40;;
41693;SDS011;27377;50.666;9.150;2023-05-10T04:09:12;1.73;;;0.55;;
41693;SDS011;27377;50.666;9.150;2023-05-10T04:11:37;0.70;;;0.55;;
41693;SDS011;27377;50.666;9.150;2023-05-10T04:14:03;1.30;;;0.50;;
41693;SDS011;27377;50.666;9.150;2023-05-10T04:16:29;1.70;;;0.60;;
41693;SDS011;27377;50.666;9.150;2023-05-10T04:18:54;0.73;;;0.50;;
41693;SDS011;27377;50.666;9.150;2023-05-10T04:21:20;0.70;;;0.60;;
41693;SDS011;27377;50.666;9.150;2023-05-10T04:23:45;0.98;;;0.60;;
41693;SDS011;27377;50.666;9.150;2023-05-10T04:26:11;2.20;;;0.70;;
41693;SDS011;27377;50.666;9.150;2023-05-10T04:28:36;0.77;;;0.57;;
41693;SDS011;27377;50.666;9.150;2023-05-10T04:31:03;1.40;;;0.80;;
41693;SDS011;27377;50.666;9.150;2023-05-10T04:33:33;0.90;;;0.70;;
41693;SDS011;27377;50.666;9.150;2023-05-10T04:35:59;0.97;;;0.70;;
41693;SDS011;27377;50.666;9.150;2023-05-10T04:38:25;1.45;;;0.73;;
41693;SDS011;27377;50.666;9.150;2023-05-10T04:40:53;2.30;;;0.80;;
41693;SDS011;27377;50.666;9.150;2023-05-10T04:43:19;1.35;;;1.00;;
41693;SDS011;27377;50.666;9.150;2023-05-10T04:45:45;1.92;;;1.00;;
41693;SDS011;27377;50.666;9.150;2023-05-10T04:48:10;2.20;;;1.10;;
41693;SDS011;27377;50.666;9.150;2023-05-10T04:50:36;1.80;;;1.00;;
41693;SDS011;27377;50.666;9.150;2023-05-10T04:53:02;1.90;;;1.20;;
41693;SDS011;27377;50.666;9.150;2023-05-10T04:55:27;2.67;;;1.30;;
41693;SDS011;27377;50.666;9.150;2023-05-10T04:57:53;2.22;;;1.20;;
41693;SDS011;27377;50.666;9.150;2023-05-10T05:00:21;2.75;;;1.02;;
41693;SDS011;27377;50.666;9.150;2023-05-10T05:02:47;2.40;;;1.20;;
41693;SDS011;27377;50.666;9.150;2023-05-10T05:05:12;2.93;;;1.27;;
41693;SDS011;27377;50.666;9.150;2023-05-10T05:07:38;3.17;;;1.10;;
41693;SDS011;27377;50.666;9.150;2023-05-10T05:10:05;2.60;;;1.20;;
41693;SDS011;27377;50.666;9.150;2023-05-10T05:12:31;1.80;;;1.10;;
41693;SDS011;27377;50.666;9.150;2023-05-10T05:14:56;1.10;;;0.90;;
41693;SDS011;27377;50.666;9.150;2023-05-10T05:17:22;1.70;;;1.13;;
41693;SDS011;27377;50.666;9.150;2023-05-10T05:19:47;3.87;;;1.20;;
41693;SDS011;27377;50.666;9.150;2023-05-10T05:22:13;3.80;;;1.20;;
41693;SDS011;27377;50.666;9.150;2023-05-10T05:24:39;3.17;;;1.00;;
41693;SDS011;27377;50.666;9.150;2023-05-10T05:27:04;2.80;;;1.07;;
41693;SDS011;27377;50.666;9.150;2023-05-10T05:29:30;3.67;;;1.08;;
41693;SDS011;27377;50.666;9.150;2023-05-10T05:31:57;2.08;;;0.90;;
41693;SDS011;27377;50.666;9.150;2023-05-10T05:34:26;3.00;;;1.10;;
41693;SDS011;27377;50.666;9.150;2023-05-10T05:36:52;2.67;;;1.17;;
41693;SDS011;27377;50.666;9.150;2023-05-10T05:39:18;2.57;;;1.10;;
41693;SDS011;27377;50.666;9.150;2023-05-10T05:41:43;2.08;;;1.10;;
41693;SDS011;27377;50.666;9.150;2023-05-10T05:44:09;2.25;;;1.10;;
41693;SDS011;27377;50.666;9.150;2023-05-10T05:46:34;1.95;;;1.17;;
41693;SDS011;27377;50.666;9.150;2023-05-10T05:49:00;2.58;;;1.30;;
41693;SDS011;27377;50.666;9.150;2023-05-10T05:51:29;2.67;;;1.40;;
41693;SDS011;27377;50.666;9.150;2023-05-10T05:53:55;3.17;;;1.67;;
41693;SDS011;27377;50.666;9.150;2023-05-10T05:56:21;3.97;;;1.73;;
41693;SDS011;27377;50.666;9.150;2023-05-10T05:58:50;3.50;;;1.80;;
41693;SDS011;27377;50.666;9.150;2023-05-10T06:01:16;2.60;;;1.80;;
41693;SDS011;27377;50.666;9.150;2023-05-10T06:03:41;2.63;;;1.93;;
41693;SDS011;27377;50.666;9.150;2023-05-10T06:06:10;3.08;;;2.10;;
41693;SDS011;27377;50.666;9.150;2023-05-10T06:08:36;4.17;;;1.90;;
41693;SDS011;27377;50.666;9.150;2023-05-10T06:11:01;3.00;;;1.70;;
41693;SDS011;27377;50.666;9.150;2023-05-10T06:13:29;3.78;;;2.08;;
41693;SDS011;27377;50.666;9.150;2023-05-10T06:15:59;4.17;;;2.00;;
41693;SDS011;27377;50.666;9.150;2023-05-10T06:18:26;2.90;;;1.95;;
41693;SDS011;27377;50.666;9.150;2023-05-10T06:20:51;5.10;;;1.97;;
41693;SDS011;27377;50.666;9.150;2023-05-10T06:23:20;2.72;;;1.80;;
41693;SDS011;27377;50.666;9.150;2023-05-10T06:25:47;2.85;;;1.95;;
41693;SDS011;27377;50.666;9.150;2023-05-10T06:28:15;3.90;;;2.17;;
41693;SDS011;27377;50.666;9.150;2023-05-10T06:30:41;3.10;;;2.20;;
41693;SDS011;27377;50.666;9.150;2023-05-10T06:33:06;3.30;;;2.00;;
41693;SDS011;27377;50.666;9.150;2023-05-10T06:35:32;3.85;;;1.95;;
41693;SDS011;27377;50.666;9.150;2023-05-10T06:38:01;3.83;;;1.80;;
41693;SDS011;27377;50.666;9.150;2023-05-10T06:40:26;3.00;;;1.63;;
41693;SDS011;27377;50.666;9.150;2023-05-10T06:42:52;2.60;;;1.67;;
41693;SDS011;27377;50.666;9.150;2023-05-10T06:45:20;3.00;;;1.60;;
41693;SDS011;27377;50.666;9.150;2023-05-10T06:47:45;2.53;;;1.60;;
41693;SDS011;27377;50.666;9.150;2023-05-10T06:50:11;2.60;;;1.60;;
41693;SDS011;27377;50.666;9.150;2023-05-10T06:52:37;2.90;;;1.43;;
41693;SDS011;27377;50.666;9.150;2023-05-10T06:55:05;2.67;;;1.50;;
41693;SDS011;27377;50.666;9.150;2023-05-10T06:57:31;2.72;;;1.50;;
41693;SDS011;27377;50.666;9.150;2023-05-10T06:59:57;2.53;;;1.60;;
41693;SDS011;27377;50.666;9.150;2023-05-10T07:02:24;3.60;;;1.80;;
41693;SDS011;27377;50.666;9.150;2023-05-10T07:04:50;3.03;;;1.60;;
41693;SDS011;27377;50.666;9.150;2023-05-10T07:07:16;3.10;;;1.80;;
41693;SDS011;27377;50.666;9.150;2023-05-10T07:09:42;3.47;;;1.60;;
41693;SDS011;27377;50.666;9.150;2023-05-10T07:12:08;3.85;;;1.60;;
41693;SDS011;27377;50.666;9.150;2023-05-10T07:14:34;2.70;;;1.50;;
41693;SDS011;27377;50.666;9.150;2023-05-10T07:17:00;2.70;;;1.50;;
41693;SDS011;27377;50.666;9.150;2023-05-10T07:19:25;3.93;;;1.60;;
41693;SDS011;27377;50.666;9.150;2023-05-10T07:21:51;2.40;;;1.63;;
41693;SDS011;27377;50.666;9.150;2023-05-10T07:24:20;3.07;;;1.60;;
41693;SDS011;27377;50.666;9.150;2023-05-10T07:26:45;4.05;;;1.90;;
41693;SDS011;27377;50.666;9.150;2023-05-10T07:29:11;2.40;;;1.60;;
41693;SDS011;27377;50.666;9.150;2023-05-10T07:31:39;3.20;;;1.95;;
41693;SDS011;27377;50.666;9.150;2023-05-10T07:34:06;3.15;;;1.80;;
41693;SDS011;27377;50.666;9.150;2023-05-10T07:36:32;3.70;;;1.85;;
41693;SDS011;27377;50.666;9.150;2023-05-10T07:39:00;3.00;;;1.75;;
41693;SDS011;27377;50.666;9.150;2023-05-10T07:41:26;3.58;;;1.90;;
41693;SDS011;27377;50.666;9.150;2023-05-10T07:43:52;3.88;;;1.90;;
41693;SDS011;27377;50.666;9.150;2023-05-10T07:46:17;3.10;;;1.90;;
41693;SDS011;27377;50.666;9.150;2023-05-10T07:48:46;4.15;;;2.05;;
41693;SDS011;27377;50.666;9.150;2023-05-10T07:51:12;3.50;;;2.07;;
41693;SDS011;27377;50.666;9.150;2023-05-10T07:53:37;3.72;;;1.65;;
41693;SDS011;27377;50.666;9.150;2023-05-10T07:59:18;3.00;;;1.75;;
41693;SDS011;27377;50.666;9.150;2023-05-10T08:01:43;3.13;;;1.60;;
41693;SDS011;27377;50.666;9.150;2023-05-10T08:04:09;3.07;;;1.60;;
41693;SDS011;27377;50.666;9.150;2023-05-10T08:06:36;2.83;;;1.50;;
41693;SDS011;27377;50.666;9.150;2023-05-10T08:09:02;3.10;;;1.47;;
41693;SDS011;27377;50.666;9.150;2023-05-10T08:11:27;2.60;;;1.33;;
41693;SDS011;27377;50.666;9.150;2023-05-10T08:13:53;2.17;;;1.20;;
41693;SDS011;27377;50.666;9.150;2023-05-10T08:16:19;2.17;;;1.20;;
41693;SDS011;27377;50.666;9.150;2023-05-10T08:18:45;2.85;;;1.45;;
41693;SDS011;27377;50.666;9.150;2023-05-10T08:21:11;2.50;;;1.20;;
41693;SDS011;27377;50.666;9.150;2023-05-10T08:23:38;2.50;;;1.33;;
41693;SDS011;27377;50.666;9.150;2023-05-10T08:26:04;2.73;;;1.20;;
41693;SDS011;27377;50.666;9.150;2023-05-10T08:28:29;3.47;;;1.50;;
41693;SDS011;27377;50.666;9.150;2023-05-10T08:30:55;3.00;;;1.40;;
41693;SDS011;27377;50.666;9.150;2023-05-10T08:33:21;2.83;;;1.37;;
41693;SDS011;27377;50.666;9.150;2023-05-10T08:35:46;3.10;;;1.20;;
41693;SDS011;27377;50.666;9.150;2023-05-10T08:38:12;2.37;;;1.20;;
41693;SDS011;27377;50.666;9.150;2023-05-10T08:40:38;2.67;;;1.43;;
41693;SDS011;27377;50.666;9.150;2023-05-10T08:43:10;2.15;;;1.30;;
41693;SDS011;27377;50.666;9.150;2023-05-10T08:45:38;2.35;;;1.20;;
41693;SDS011;27377;50.666;9.150;2023-05-10T08:48:06;2.80;;;1.23;;
41693;SDS011;27377;50.666;9.150;2023-05-10T08:50:33;3.20;;;1.30;;
41693;SDS011;27377;50.666;9.150;2023-05-10T08:53:00;3.35;;;1.30;;
41693;SDS011;27377;50.666;9.150;2023-05-10T08:55:31;3.05;;;1.40;;
41693;SDS011;27377;50.666;9.150;2023-05-10T08:57:58;2.65;;;1.20;;
41693;SDS011;27377;50.666;9.150;2023-05-10T09:00:24;2.30;;;1.37;;
41693;SDS011;27377;50.666;9.150;2023-05-10T09:02:51;3.00;;;1.30;;
41693;SDS011;27377;50.666;9.150;2023-05-10T09:05:17;2.83;;;1.50;;
41693;SDS011;27377;50.666;9.150;2023-05-10T09:07:42;2.70;;;1.30;;
41693;SDS011;27377;50.666;9.150;2023-05-10T09:10:08;3.10;;;1.55;;
41693;SDS011;27377;50.666;9.150;2023-05-10T09:12:35;3.70;;;1.50;;
41693;SDS011;27377;50.666;9.150;2023-05-10T09:15:01;3.07;;;1.47;;
41693;SDS011;27377;50.666;9.150;2023-05-10T09:17:27;4.72;;;1.50;;
41693;SDS011;27377;50.666;9.150;2023-05-10T09:20:01;3.23;;;1.63;;
41693;SDS011;27377;50.666;9.150;2023-05-10T09:22:29;2.40;;;1.40;;
41693;SDS011;27377;50.666;9.150;2023-05-10T09:25:11;2.85;;;1.50;;
41693;SDS011;27377;50.666;9.150;2023-05-10T09:27:40;3.17;;;1.55;;
41693;SDS011;27377;50.666;9.150;2023-05-10T09:30:07;4.05;;;1.75;;
41693;SDS011;27377;50.666;9.150;2023-05-10T09:32:43;2.70;;;1.40;;
41693;SDS011;27377;50.666;9.150;2023-05-10T09:35:10;4.57;;;1.70;;
41693;SDS011;27377;50.666;9.150;2023-05-10T09:37:39;4.00;;;1.50;;
41693;SDS011;27377;50.666;9.150;2023-05-10T09:40:08;4.25;;;1.60;;
41693;SDS011;27377;50.666;9.150;2023-05-10T09:45:26;3.90;;;1.60;;
41693;SDS011;27377;50.666;9.150;2023-05-10T09:47:53;3.38;;;1.70;;
41693;SDS011;27377;50.666;9.150;2023-05-10T09:50:19;3.57;;;1.63;;
41693;SDS011;27377;50.666;9.150;2023-05-10T09:52:52;2.72;;;1.50;;
41693;SDS011;27377;50.666;9.150;2023-05-10T09:55:38;4.07;;;1.90;;
41693;SDS011;27377;50.666;9.150;2023-05-10T09:58:04;4.25;;;1.75;;
41693;SDS011;27377;50.666;9.150;2023-05-10T10:00:35;3.97;;;1.90;;
41693;SDS011;27377;50.666;9.150;2023-05-10T10:03:02;2.78;;;1.70;;
41693;SDS011;27377;50.666;9.150;2023-05-10T10:05:33;3.50;;;2.00;;
41693;SDS011;27377;50.666;9.150;2023-05-10T10:08:00;4.20;;;1.87;;
41693;SDS011;27377;50.666;9.150;2023-05-10T10:10:29;4.22;;;1.95;;
41693;SDS011;27377;50.666;9.150;2023-05-10T10:12:57;3.37;;;1.87;;
41693;SDS011;27377;50.666;9.150;2023-05-10T10:15:24;4.50;;;2.10;;
41693;SDS011;27377;50.666;9.150;2023-05-10T10:17:51;3.80;;;2.00;;
41693;SDS011;27377;50.666;9.150;2023-05-10T10:20:18;4.22;;;2.00;;
41693;SDS011;27377;50.666;9.150;2023-05-10T10:22:46;6.17;;;2.40;;
41693;SDS011;27377;50.666;9.150;2023-05-10T10:25:12;6.00;;;2.20;;
41693;SDS011;27377;50.666;9.150;2023-05-10T10:27:43;4.78;;;2.17;;
41693;SDS011;27377;50.666;9.150;2023-05-10T10:32:49;4.93;;;2.40;;
41693;SDS011;27377;50.666;9.150;2023-05-10T10:35:32;4.15;;;2.20;;
41693;SDS011;27377;50.666;9.150;2023-05-10T10:37:59;4.03;;;2.30;;
41693;SDS011;27377;50.666;9.150;2023-05-10T10:40:26;4.80;;;2.38;;
41693;SDS011;27377;50.666;9.150;2023-05-10T10:42:53;5.38;;;2.40;;
41693;SDS011;27377;50.666;9.150;2023-05-10T10:45:20;3.85;;;2.30;;
41693;SDS011;27377;50.666;9.150;2023-05-10T10:47:47;4.45;;;2.20;;
41693;SDS011;27377;50.666;9.150;2023-05-10T10:50:13;4.25;;;2.72;;
41693;SDS011;27377;50.666;9.150;2023-05-10T10:52:41;4.20;;;2.28;;
41693;SDS011;27377;50.666;9.150;2023-05-10T10:55:14;5.82;;;2.50;;
41693;SDS011;27377;50.666;9.150;2023-05-10T10:57:47;4.20;;;2.50;;
41693;SDS011;27377;50.666;9.150;2023-05-10T11:00:27;4.35;;;2.80;;
41693;SDS011;27377;50.666;9.150;2023-05-10T11:05:46;5.57;;;3.20;;
41693;SDS011;27377;50.666;9.150;2023-05-10T11:08:17;4.57;;;2.90;;
41693;SDS011;27377;50.666;9.150;2023-05-10T11:13:31;6.17;;;2.87;;
41693;SDS011;27377;50.666;9.150;2023-05-10T11:18:51;4.43;;;2.72;;
41693;SDS011;27377;50.666;9.150;2023-05-10T11:21:27;5.82;;;2.90;;
41693;SDS011;27377;50.666;9.150;2023-05-10T11:23:54;4.85;;;2.60;;
41693;SDS011;27377;50.666;9.150;2023-05-10T11:26:22;4.70;;;2.60;;
41693;SDS011;27377;50.666;9.150;2023-05-10T11:28:58;4.57;;;2.83;;
41693;SDS011;27377;50.666;9.150;2023-05-10T11:31:25;6.30;;;2.90;;
41693;SDS011;27377;50.666;9.150;2023-05-10T11:33:55;4.80;;;3.00;;
41693;SDS011;27377;50.666;9.150;2023-05-10T11:36:27;4.45;;;2.50;;
41693;SDS011;27377;50.666;9.150;2023-05-10T11:38:54;4.25;;;2.60;;
41693;SDS011;27377;50.666;9.150;2023-05-10T11:41:21;4.30;;;2.60;;
41693;SDS011;27377;50.666;9.150;2023-05-10T11:43:48;4.82;;;2.47;;
41693;SDS011;27377;50.666;9.150;2023-05-10T11:46:15;4.53;;;2.70;;
41693;SDS011;27377;50.666;9.150;2023-05-10T11:48:43;4.53;;;2.30;;
41693;SDS011;27377;50.666;9.150;2023-05-10T11:51:09;3.63;;;2.30;;
41693;SDS011;27377;50.666;9.150;2023-05-10T11:53:35;4.68;;;2.38;;
41693;SDS011;27377;50.666;9.150;2023-05-10T11:56:05;4.65;;;2.40;;
41693;SDS011;27377;50.666;9.150;2023-05-10T11:58:35;3.65;;;2.35;;
41693;SDS011;27377;50.666;9.150;2023-05-10T12:01:02;4.78;;;2.22;;
41693;SDS011;27377;50.666;9.150;2023-05-10T12:03:28;3.50;;;2.10;;
41693;SDS011;27377;50.666;9.150;2023-05-10T12:05:55;3.53;;;1.98;;
41693;SDS011;27377;50.666;9.150;2023-05-10T12:08:22;4.57;;;2.00;;
41693;SDS011;27377;50.666;9.150;2023-05-10T12:10:52;3.13;;;1.80;;
41693;SDS011;27377;50.666;9.150;2023-05-10T12:13:19;3.53;;;1.63;;
41693;SDS011;27377;50.666;9.150;2023-05-10T12:15:45;3.63;;;1.70;;
41693;SDS011;27377;50.666;9.150;2023-05-10T12:18:12;4.47;;;1.50;;
41693;SDS011;27377;50.666;9.150;2023-05-10T12:20:39;3.60;;;1.75;;
41693;SDS011;27377;50.666;9.150;2023-05-10T12:23:05;2.85;;;1.50;;
41693;SDS011;27377;50.666;9.150;2023-05-10T12:25:33;2.85;;;1.30;;
41693;SDS011;27377;50.666;9.150;2023-05-10T12:28:00;2.95;;;1.50;;
41693;SDS011;27377;50.666;9.150;2023-05-10T12:30:28;3.10;;;1.45;;
41693;SDS011;27377;50.666;9.150;2023-05-10T12:33:08;3.78;;;1.70;;
41693;SDS011;27377;50.666;9.150;2023-05-10T12:35:45;3.97;;;1.58;;
41693;SDS011;27377;50.666;9.150;2023-05-10T12:41:03;2.75;;;1.58;;
41693;SDS011;27377;50.666;9.150;2023-05-10T12:43:33;3.53;;;1.70;;
41693;SDS011;27377;50.666;9.150;2023-05-10T12:46:04;2.83;;;1.70;;
41693;SDS011;27377;50.666;9.150;2023-05-10T12:48:30;3.05;;;1.67;;
41693;SDS011;27377;50.666;9.150;2023-05-10T12:50:56;3.17;;;1.70;;
41693;SDS011;27377;50.666;9.150;2023-05-10T12:53:22;3.63;;;1.50;;
41693;SDS011;27377;50.666;9.150;2023-05-10T12:55:47;2.50;;;1.50;;
41693;SDS011;27377;50.666;9.150;2023-05-10T12:58:13;3.63;;;2.13;;
41693;SDS011;27377;50.666;9.150;2023-05-10T13:00:39;2.83;;;1.83;;
41693;SDS011;27377;50.666;9.150;2023-05-10T13:03:04;4.50;;;1.70;;
41693;SDS011;27377;50.666;9.150;2023-05-10T13:05:31;3.03;;;1.70;;
41693;SDS011;27377;50.666;9.150;2023-05-10T13:08:00;3.40;;;1.80;;
41693;SDS011;27377;50.666;9.150;2023-05-10T13:10:26;2.90;;;1.70;;
41693;SDS011;27377;50.666;9.150;2023-05-10T13:12:53;2.85;;;1.67;;
41693;SDS011;27377;50.666;9.150;2023-05-10T13:15:18;3.63;;;1.43;;
41693;SDS011;27377;50.666;9.150;2023-05-10T13:17:44;2.60;;;1.40;;
41693;SDS011;27377;50.666;9.150;2023-05-10T13:20:10;4.40;;;1.50;;
41693;SDS011;27377;50.666;9.150;2023-05-10T13:22:36;3.30;;;1.55;;
41693;SDS011;27377;50.666;9.150;2023-05-10T13:25:01;3.85;;;1.70;;
41693;SDS011;27377;50.666;9.150;2023-05-10T13:27:27;3.70;;;1.50;;
41693;SDS011;27377;50.666;9.150;2023-05-10T13:29:53;3.90;;;1.70;;
41693;SDS011;27377;50.666;9.150;2023-05-10T13:32:19;3.08;;;1.42;;
41693;SDS011;27377;50.666;9.150;2023-05-10T13:34:45;3.15;;;1.52;;
41693;SDS011;27377;50.666;9.150;2023-05-10T13:37:11;3.13;;;1.55;;
41693;SDS011;27377;50.666;9.150;2023-05-10T13:39:36;3.47;;;1.60;;
41693;SDS011;27377;50.666;9.150;2023-05-10T13:42:02;3.33;;;1.50;;
41693;SDS011;27377;50.666;9.150;2023-05-10T13:44:28;2.75;;;1.45;;
41693;SDS011;27377;50.666;9.150;2023-05-10T13:46:54;2.03;;;1.30;;
41693;SDS011;27377;50.666;9.150;2023-05-10T13:49:20;2.80;;;1.40;;
41693;SDS011;27377;50.666;9.150;2023-05-10T13:51:46;2.85;;;1.48;;
41693;SDS011;27377;50.666;9.150;2023-05-10T13:54:12;4.15;;;1.40;;
41693;SDS011;27377;50.666;9.150;2023-05-10T13:56:38;6.50;;;1.40;;
41693;SDS011;27377;50.666;9.150;2023-05-10T13:59:03;2.40;;;1.40;;
41693;SDS011;27377;50.666;9.150;2023-05-10T14:01:29;2.97;;;1.40;;
41693;SDS011;27377;50.666;9.150;2023-05-10T14:03:54;2.50;;;1.30;;
41693;SDS011;27377;50.666;9.150;2023-05-10T14:06:20;2.50;;;1.40;;
41693;SDS011;27377;50.666;9.150;2023-05-10T14:08:46;2.90;;;1.57;;
41693;SDS011;27377;50.666;9.150;2023-05-10T14:11:12;2.47;;;1.30;;
41693;SDS011;27377;50.666;9.150;2023-05-10T14:13:38;3.10;;;1.60;;
41693;SDS011;27377;50.666;9.150;2023-05-10T14:16:03;3.22;;;1.50;;
41693;SDS011;27377;50.666;9.150;2023-05-10T14:18:29;2.70;;;1.42;;
41693;SDS011;27377;50.666;9.150;2023-05-10T14:20:55;2.40;;;1.40;;
41693;SDS011;27377;50.666;9.150;2023-05-10T14:23:21;3.20;;;1.50;;
41693;SDS011;27377;50.666;9.150;2023-05-10T14:25:51;3.90;;;1.60;;
41693;SDS011;27377;50.666;9.150;2023-05-10T14:28:17;2.60;;;1.35;;
41693;SDS011;27377;50.666;9.150;2023-05-10T14:30:43;2.63;;;1.40;;
41693;SDS011;27377;50.666;9.150;2023-05-10T14:33:09;3.55;;;1.60;;
41693;SDS011;27377;50.666;9.150;2023-05-10T14:35:35;3.90;;;1.30;;
41693;SDS011;27377;50.666;9.150;2023-05-10T14:38:01;3.22;;;1.45;;
41693;SDS011;27377;50.666;9.150;2023-05-10T14:40:28;3.10;;;1.38;;
41693;SDS011;27377;50.666;9.150;2023-05-10T14:42:54;3.63;;;1.40;;
41693;SDS011;27377;50.666;9.150;2023-05-10T14:45:20;3.07;;;1.30;;
41693;SDS011;27377;50.666;9.150;2023-05-10T14:47:46;2.13;;;1.20;;
41693;SDS011;27377;50.666;9.150;2023-05-10T14:50:11;4.57;;;1.20;;
41693;SDS011;27377;50.666;9.150;2023-05-10T14:52:37;3.30;;;1.30;;
41693;SDS011;27377;50.666;9.150;2023-05-10T14:55:02;2.50;;;1.20;;
41693;SDS011;27377;50.666;9.150;2023-05-10T14:57:28;4.25;;;1.40;;
41693;SDS011;27377;50.666;9.150;2023-05-10T14:59:54;2.85;;;1.23;;
41693;SDS011;27377;50.666;9.150;2023-05-10T15:02:21;2.13;;;1.10;;
41693;SDS011;27377;50.666;9.150;2023-05-10T15:04:47;2.53;;;1.10;;
41693;SDS011;27377;50.666;9.150;2023-05-10T15:07:12;2.38;;;1.30;;
41693;SDS011;27377;50.666;9.150;2023-05-10T15:09:40;3.08;;;1.20;;
41693;SDS011;27377;50.666;9.150;2023-05-10T15:12:05;2.35;;;1.20;;
41693;SDS011;27377;50.666;9.150;2023-05-10T15:14:31;3.78;;;1.20;;
41693;SDS011;27377;50.666;9.150;2023-05-10T15:16:57;2.00;;;1.17;;
41693;SDS011;27377;50.666;9.150;2023-05-10T15:19:24;3.50;;;0.90;;
41693;SDS011;27377;50.666;9.150;2023-05-10T15:21:49;2.05;;;1.10;;
41693;SDS011;27377;50.666;9.150;2023-05-10T15:24:15;2.17;;;1.00;;